sensor_id;sensor_type;location;lat;lon;timestamp;P1;durP1;ratioP1;P2;durP2;ratioP2
18899;SDS011;9582;52.018;6.306;2023-04-09T00:01:52;40.67;;;25.90;;
18899;SDS011;9582;52.018;6.306;2023-04-09T00:04:19;40.70;;;25.90;;
18899;SDS011;9582;52.018;6.306;2023-04-09T00:06:46;38.57;;;25.27;;
18899;SDS011;9582;52.018;6.306;2023-04-09T00:09:12;41.70;;;24.57;;
18899;SDS011;9582;52.018;6.306;2023-04-09T00:11:40;42.60;;;26.40;;
18899;SDS011;9582;52.018;6.306;2023-04-09T00:14:07;47.80;;;27.13;;
18899;SDS011;9582;52.018;6.306;2023-04-09T00:16:33;43.40;;;26.13;;
18899;SDS011;9582;52.018;6.306;2023-04-09T00:19:00;40.70;;;25.80;;
18899;SDS011;9582;52.018;6.306;2023-04-09T00:21:26;38.77;;;26.20;;
18899;SDS011;9582;52.018;6.306;2023-04-09T00:23:53;37.37;;;25.17;;
18899;SDS011;9582;52.018;6.306;2023-04-09T00:26:19;43.30;;;25.93;;
18899;SDS011;9582;52.018;6.306;2023-04-09T00:28:48;40.83;;;25.70;;
18899;SDS011;9582;52.018;6.306;2023-04-09T00:31:14;40.20;;;26.73;;
18899;SDS011;9582;52.018;6.306;2023-04-09T00:33:41;40.77;;;25.43;;
18899;SDS011;9582;52.018;6.306;2023-04-09T00:36:08;40.87;;;26.27;;
18899;SDS011;9582;52.018;6.306;2023-04-09T00:38:34;44.47;;;26.97;;
18899;SDS011;9582;52.018;6.306;2023-04-09T00:41:01;41.03;;;26.53;;
18899;SDS011;9582;52.018;6.306;2023-04-09T00:43:27;42.87;;;25.53;;
18899;SDS011;9582;52.018;6.306;2023-04-09T00:45:55;41.17;;;27.77;;
18899;SDS011;9582;52.018;6.306;2023-04-09T00:48:23;41.77;;;27.40;;
18899;SDS011;9582;52.018;6.306;2023-04-09T00:50:50;37.87;;;25.07;;
18899;SDS011;9582;52.018;6.306;2023-04-09T00:53:16;43.47;;;26.07;;
18899;SDS011;9582;52.018;6.306;2023-04-09T00:55:43;36.33;;;25.30;;
18899;SDS011;9582;52.018;6.306;2023-04-09T00:58:10;34.80;;;23.73;;
18899;SDS011;9582;52.018;6.306;2023-04-09T01:00:37;36.70;;;24.77;;
18899;SDS011;9582;52.018;6.306;2023-04-09T01:03:05;34.30;;;22.03;;
18899;SDS011;9582;52.018;6.306;2023-04-09T01:05:33;27.97;;;20.40;;
18899;SDS011;9582;52.018;6.306;2023-04-09T01:08:07;31.23;;;21.87;;
18899;SDS011;9582;52.018;6.306;2023-04-09T01:10:44;30.07;;;21.03;;
18899;SDS011;9582;52.018;6.306;2023-04-09T01:13:19;29.90;;;21.47;;
18899;SDS011;9582;52.018;6.306;2023-04-09T01:15:55;32.07;;;21.23;;
18899;SDS011;9582;52.018;6.306;2023-04-09T01:18:28;32.03;;;20.87;;
18899;SDS011;9582;52.018;6.306;2023-04-09T01:21:01;33.10;;;22.17;;
18899;SDS011;9582;52.018;6.306;2023-04-09T01:23:33;33.27;;;22.27;;
18899;SDS011;9582;52.018;6.306;2023-04-09T01:26:10;31.10;;;21.37;;
18899;SDS011;9582;52.018;6.306;2023-04-09T01:28:52;33.47;;;22.77;;
18899;SDS011;9582;52.018;6.306;2023-04-09T01:31:23;32.37;;;21.53;;
18899;SDS011;9582;52.018;6.306;2023-04-09T01:33:53;30.47;;;20.50;;
18899;SDS011;9582;52.018;6.306;2023-04-09T01:36:20;29.27;;;19.53;;
18899;SDS011;9582;52.018;6.306;2023-04-09T01:38:49;30.33;;;20.47;;
18899;SDS011;9582;52.018;6.306;2023-04-09T01:41:17;30.17;;;20.67;;
18899;SDS011;9582;52.018;6.306;2023-04-09T01:43:47;32.33;;;21.70;;
18899;SDS011;9582;52.018;6.306;2023-04-09T01:46:15;31.00;;;20.90;;
18899;SDS011;9582;52.018;6.306;2023-04-09T01:48:43;29.73;;;19.90;;
18899;SDS011;9582;52.018;6.306;2023-04-09T01:51:10;28.50;;;21.00;;
18899;SDS011;9582;52.018;6.306;2023-04-09T01:53:38;29.50;;;21.13;;
18899;SDS011;9582;52.018;6.306;2023-04-09T01:56:05;31.90;;;21.97;;
18899;SDS011;9582;52.018;6.306;2023-04-09T01:58:32;31.93;;;21.73;;
18899;SDS011;9582;52.018;6.306;2023-04-09T02:01:00;32.60;;;22.60;;
18899;SDS011;9582;52.018;6.306;2023-04-09T02:03:34;32.53;;;22.67;;
18899;SDS011;9582;52.018;6.306;2023-04-09T02:06:06;34.57;;;22.50;;
18899;SDS011;9582;52.018;6.306;2023-04-09T02:08:38;33.93;;;22.70;;
18899;SDS011;9582;52.018;6.306;2023-04-09T02:11:09;31.00;;;20.90;;
18899;SDS011;9582;52.018;6.306;2023-04-09T02:13:36;33.13;;;22.20;;
18899;SDS011;9582;52.018;6.306;2023-04-09T02:16:06;34.57;;;22.77;;
18899;SDS011;9582;52.018;6.306;2023-04-09T02:18:35;33.07;;;21.80;;
18899;SDS011;9582;52.018;6.306;2023-04-09T02:21:02;30.50;;;21.47;;
18899;SDS011;9582;52.018;6.306;2023-04-09T02:23:29;33.47;;;22.60;;
18899;SDS011;9582;52.018;6.306;2023-04-09T02:25:57;32.50;;;22.37;;
18899;SDS011;9582;52.018;6.306;2023-04-09T02:28:25;34.97;;;22.57;;
18899;SDS011;9582;52.018;6.306;2023-04-09T02:30:51;33.40;;;23.13;;
18899;SDS011;9582;52.018;6.306;2023-04-09T02:33:18;32.43;;;22.47;;
18899;SDS011;9582;52.018;6.306;2023-04-09T02:35:45;33.60;;;23.30;;
18899;SDS011;9582;52.018;6.306;2023-04-09T02:38:12;30.17;;;21.80;;
18899;SDS011;9582;52.018;6.306;2023-04-09T02:40:40;32.07;;;22.60;;
18899;SDS011;9582;52.018;6.306;2023-04-09T02:43:06;32.03;;;22.27;;
18899;SDS011;9582;52.018;6.306;2023-04-09T02:45:33;33.23;;;23.07;;
18899;SDS011;9582;52.018;6.306;2023-04-09T02:48:00;34.27;;;23.17;;
18899;SDS011;9582;52.018;6.306;2023-04-09T02:50:29;32.87;;;22.93;;
18899;SDS011;9582;52.018;6.306;2023-04-09T02:52:57;34.40;;;23.20;;
18899;SDS011;9582;52.018;6.306;2023-04-09T02:55:23;32.30;;;21.60;;
18899;SDS011;9582;52.018;6.306;2023-04-09T02:57:50;33.60;;;22.67;;
18899;SDS011;9582;52.018;6.306;2023-04-09T03:00:16;32.60;;;21.93;;
18899;SDS011;9582;52.018;6.306;2023-04-09T03:02:43;30.93;;;21.73;;
18899;SDS011;9582;52.018;6.306;2023-04-09T03:05:09;33.23;;;22.50;;
18899;SDS011;9582;52.018;6.306;2023-04-09T03:07:36;33.47;;;22.50;;
18899;SDS011;9582;52.018;6.306;2023-04-09T03:10:04;34.53;;;22.73;;
18899;SDS011;9582;52.018;6.306;2023-04-09T03:12:31;35.57;;;22.97;;
18899;SDS011;9582;52.018;6.306;2023-04-09T03:14:57;31.63;;;21.40;;
18899;SDS011;9582;52.018;6.306;2023-04-09T03:17:24;32.23;;;21.33;;
18899;SDS011;9582;52.018;6.306;2023-04-09T03:19:51;33.37;;;22.43;;
18899;SDS011;9582;52.018;6.306;2023-04-09T03:22:18;32.90;;;21.63;;
18899;SDS011;9582;52.018;6.306;2023-04-09T03:24:48;30.00;;;21.57;;
18899;SDS011;9582;52.018;6.306;2023-04-09T03:27:16;30.60;;;20.27;;
18899;SDS011;9582;52.018;6.306;2023-04-09T03:29:43;30.50;;;19.67;;
18899;SDS011;9582;52.018;6.306;2023-04-09T03:32:10;29.83;;;19.27;;
18899;SDS011;9582;52.018;6.306;2023-04-09T03:34:36;29.00;;;20.93;;
18899;SDS011;9582;52.018;6.306;2023-04-09T03:37:03;31.43;;;21.17;;
18899;SDS011;9582;52.018;6.306;2023-04-09T03:39:30;30.17;;;19.00;;
18899;SDS011;9582;52.018;6.306;2023-04-09T03:41:57;28.00;;;19.27;;
18899;SDS011;9582;52.018;6.306;2023-04-09T03:44:28;31.67;;;20.13;;
18899;SDS011;9582;52.018;6.306;2023-04-09T03:47:04;31.13;;;19.87;;
18899;SDS011;9582;52.018;6.306;2023-04-09T03:49:33;30.03;;;19.10;;
18899;SDS011;9582;52.018;6.306;2023-04-09T03:52:06;29.07;;;19.43;;
18899;SDS011;9582;52.018;6.306;2023-04-09T03:54:36;30.07;;;18.23;;
18899;SDS011;9582;52.018;6.306;2023-04-09T03:57:08;28.17;;;19.00;;
18899;SDS011;9582;52.018;6.306;2023-04-09T03:59:39;32.80;;;19.80;;
18899;SDS011;9582;52.018;6.306;2023-04-09T04:02:06;30.67;;;20.13;;
18899;SDS011;9582;52.018;6.306;2023-04-09T04:04:36;30.73;;;20.07;;
18899;SDS011;9582;52.018;6.306;2023-04-09T04:07:07;31.17;;;20.00;;
18899;SDS011;9582;52.018;6.306;2023-04-09T04:09:51;32.07;;;19.80;;
18899;SDS011;9582;52.018;6.306;2023-04-09T04:12:18;30.77;;;19.60;;
18899;SDS011;9582;52.018;6.306;2023-04-09T04:15:05;33.40;;;20.30;;
18899;SDS011;9582;52.018;6.306;2023-04-09T04:17:44;31.37;;;19.97;;
18899;SDS011;9582;52.018;6.306;2023-04-09T04:20:23;29.93;;;20.73;;
18899;SDS011;9582;52.018;6.306;2023-04-09T04:22:57;32.43;;;19.67;;
18899;SDS011;9582;52.018;6.306;2023-04-09T04:25:24;32.30;;;19.90;;
18899;SDS011;9582;52.018;6.306;2023-04-09T04:27:52;31.37;;;20.07;;
18899;SDS011;9582;52.018;6.306;2023-04-09T04:30:23;32.43;;;20.07;;
18899;SDS011;9582;52.018;6.306;2023-04-09T04:33:05;33.17;;;21.07;;
18899;SDS011;9582;52.018;6.306;2023-04-09T04:35:39;35.70;;;22.20;;
18899;SDS011;9582;52.018;6.306;2023-04-09T04:38:11;36.40;;;21.70;;
18899;SDS011;9582;52.018;6.306;2023-04-09T04:40:39;34.03;;;21.90;;
18899;SDS011;9582;52.018;6.306;2023-04-09T04:43:06;37.03;;;22.37;;
18899;SDS011;9582;52.018;6.306;2023-04-09T04:45:34;36.30;;;23.13;;
18899;SDS011;9582;52.018;6.306;2023-04-09T04:48:07;37.97;;;22.33;;
18899;SDS011;9582;52.018;6.306;2023-04-09T04:50:33;38.63;;;22.93;;
18899;SDS011;9582;52.018;6.306;2023-04-09T04:53:04;36.00;;;22.13;;
18899;SDS011;9582;52.018;6.306;2023-04-09T04:55:38;34.13;;;21.93;;
18899;SDS011;9582;52.018;6.306;2023-04-09T04:58:07;36.83;;;21.47;;
18899;SDS011;9582;52.018;6.306;2023-04-09T05:00:43;33.10;;;20.67;;
18899;SDS011;9582;52.018;6.306;2023-04-09T05:03:09;36.70;;;21.50;;
18899;SDS011;9582;52.018;6.306;2023-04-09T05:05:45;34.70;;;22.73;;
18899;SDS011;9582;52.018;6.306;2023-04-09T05:08:11;34.20;;;22.07;;
18899;SDS011;9582;52.018;6.306;2023-04-09T05:10:39;38.57;;;23.13;;
18899;SDS011;9582;52.018;6.306;2023-04-09T05:13:06;36.57;;;22.23;;
18899;SDS011;9582;52.018;6.306;2023-04-09T05:15:36;38.10;;;22.30;;
18899;SDS011;9582;52.018;6.306;2023-04-09T05:18:05;37.93;;;22.93;;
18899;SDS011;9582;52.018;6.306;2023-04-09T05:20:32;34.97;;;22.37;;
18899;SDS011;9582;52.018;6.306;2023-04-09T05:23:06;36.87;;;22.30;;
18899;SDS011;9582;52.018;6.306;2023-04-09T05:25:38;37.30;;;23.00;;
18899;SDS011;9582;52.018;6.306;2023-04-09T05:28:09;42.73;;;23.63;;
18899;SDS011;9582;52.018;6.306;2023-04-09T05:30:37;40.50;;;23.03;;
18899;SDS011;9582;52.018;6.306;2023-04-09T05:33:05;41.17;;;23.80;;
18899;SDS011;9582;52.018;6.306;2023-04-09T05:35:32;39.60;;;23.90;;
18899;SDS011;9582;52.018;6.306;2023-04-09T05:37:58;42.73;;;23.50;;
18899;SDS011;9582;52.018;6.306;2023-04-09T05:40:25;41.03;;;23.40;;
18899;SDS011;9582;52.018;6.306;2023-04-09T05:42:52;35.13;;;22.30;;
18899;SDS011;9582;52.018;6.306;2023-04-09T05:45:35;38.30;;;23.43;;
18899;SDS011;9582;52.018;6.306;2023-04-09T05:48:01;39.77;;;24.03;;
18899;SDS011;9582;52.018;6.306;2023-04-09T05:50:29;35.83;;;22.63;;
18899;SDS011;9582;52.018;6.306;2023-04-09T05:52:56;39.63;;;24.13;;
18899;SDS011;9582;52.018;6.306;2023-04-09T05:55:29;40.27;;;24.33;;
18899;SDS011;9582;52.018;6.306;2023-04-09T05:57:59;44.57;;;24.90;;
18899;SDS011;9582;52.018;6.306;2023-04-09T06:00:25;37.70;;;23.40;;
18899;SDS011;9582;52.018;6.306;2023-04-09T06:02:52;39.77;;;24.70;;
18899;SDS011;9582;52.018;6.306;2023-04-09T06:05:18;39.17;;;24.40;;
18899;SDS011;9582;52.018;6.306;2023-04-09T06:07:47;36.90;;;23.87;;
18899;SDS011;9582;52.018;6.306;2023-04-09T06:10:14;42.73;;;24.97;;
18899;SDS011;9582;52.018;6.306;2023-04-09T06:12:40;41.43;;;25.93;;
18899;SDS011;9582;52.018;6.306;2023-04-09T06:15:07;40.63;;;23.73;;
18899;SDS011;9582;52.018;6.306;2023-04-09T06:17:34;39.37;;;23.77;;
18899;SDS011;9582;52.018;6.306;2023-04-09T06:20:01;39.13;;;24.73;;
18899;SDS011;9582;52.018;6.306;2023-04-09T06:22:28;36.80;;;23.23;;
18899;SDS011;9582;52.018;6.306;2023-04-09T06:24:56;38.63;;;23.30;;
18899;SDS011;9582;52.018;6.306;2023-04-09T06:27:22;36.67;;;23.23;;
18899;SDS011;9582;52.018;6.306;2023-04-09T06:29:49;44.87;;;25.07;;
18899;SDS011;9582;52.018;6.306;2023-04-09T06:32:15;41.93;;;24.87;;
18899;SDS011;9582;52.018;6.306;2023-04-09T06:34:42;38.13;;;23.07;;
18899;SDS011;9582;52.018;6.306;2023-04-09T06:37:09;36.93;;;24.00;;
18899;SDS011;9582;52.018;6.306;2023-04-09T06:39:35;38.83;;;24.27;;
18899;SDS011;9582;52.018;6.306;2023-04-09T06:42:03;39.10;;;25.13;;
18899;SDS011;9582;52.018;6.306;2023-04-09T06:44:36;39.17;;;23.70;;
18899;SDS011;9582;52.018;6.306;2023-04-09T06:47:03;37.67;;;23.93;;
18899;SDS011;9582;52.018;6.306;2023-04-09T06:49:29;40.07;;;24.67;;
18899;SDS011;9582;52.018;6.306;2023-04-09T06:51:56;37.67;;;23.83;;
18899;SDS011;9582;52.018;6.306;2023-04-09T06:54:22;39.17;;;23.73;;
18899;SDS011;9582;52.018;6.306;2023-04-09T06:56:49;37.53;;;23.83;;
18899;SDS011;9582;52.018;6.306;2023-04-09T06:59:17;35.57;;;23.97;;
18899;SDS011;9582;52.018;6.306;2023-04-09T07:01:43;34.87;;;23.10;;
18899;SDS011;9582;52.018;6.306;2023-04-09T07:04:11;35.37;;;24.20;;
18899;SDS011;9582;52.018;6.306;2023-04-09T07:06:38;37.70;;;24.47;;
18899;SDS011;9582;52.018;6.306;2023-04-09T07:09:05;34.27;;;22.77;;
18899;SDS011;9582;52.018;6.306;2023-04-09T07:11:31;33.70;;;21.97;;
18899;SDS011;9582;52.018;6.306;2023-04-09T07:13:58;33.50;;;22.43;;
18899;SDS011;9582;52.018;6.306;2023-04-09T07:16:26;35.97;;;23.60;;
18899;SDS011;9582;52.018;6.306;2023-04-09T07:18:52;36.00;;;25.00;;
18899;SDS011;9582;52.018;6.306;2023-04-09T07:21:19;35.90;;;24.13;;
18899;SDS011;9582;52.018;6.306;2023-04-09T07:23:45;34.10;;;22.57;;
18899;SDS011;9582;52.018;6.306;2023-04-09T07:26:12;33.30;;;22.50;;
18899;SDS011;9582;52.018;6.306;2023-04-09T07:28:38;33.60;;;23.30;;
18899;SDS011;9582;52.018;6.306;2023-04-09T07:31:06;34.43;;;22.77;;
18899;SDS011;9582;52.018;6.306;2023-04-09T07:33:34;33.63;;;23.47;;
18899;SDS011;9582;52.018;6.306;2023-04-09T07:36:00;35.10;;;22.90;;
18899;SDS011;9582;52.018;6.306;2023-04-09T07:38:27;31.23;;;21.53;;
18899;SDS011;9582;52.018;6.306;2023-04-09T07:40:54;33.50;;;22.53;;
18899;SDS011;9582;52.018;6.306;2023-04-09T07:43:20;32.23;;;22.63;;
18899;SDS011;9582;52.018;6.306;2023-04-09T07:45:47;34.23;;;22.77;;
18899;SDS011;9582;52.018;6.306;2023-04-09T07:48:14;30.80;;;21.13;;
18899;SDS011;9582;52.018;6.306;2023-04-09T07:50:41;34.63;;;23.23;;
18899;SDS011;9582;52.018;6.306;2023-04-09T07:53:09;32.27;;;22.23;;
18899;SDS011;9582;52.018;6.306;2023-04-09T07:55:36;30.67;;;20.93;;
18899;SDS011;9582;52.018;6.306;2023-04-09T07:58:02;30.27;;;21.63;;
18899;SDS011;9582;52.018;6.306;2023-04-09T08:00:30;31.60;;;21.93;;
18899;SDS011;9582;52.018;6.306;2023-04-09T08:02:56;30.07;;;21.17;;
18899;SDS011;9582;52.018;6.306;2023-04-09T08:05:22;29.63;;;21.73;;
18899;SDS011;9582;52.018;6.306;2023-04-09T08:07:50;26.63;;;20.43;;
18899;SDS011;9582;52.018;6.306;2023-04-09T08:10:17;27.57;;;20.77;;
18899;SDS011;9582;52.018;6.306;2023-04-09T08:12:44;28.07;;;20.73;;
18899;SDS011;9582;52.018;6.306;2023-04-09T08:15:12;26.45;;;20.42;;
18899;SDS011;9582;52.018;6.306;2023-04-09T08:17:39;28.83;;;20.50;;
18899;SDS011;9582;52.018;6.306;2023-04-09T08:20:06;26.55;;;19.20;;
18899;SDS011;9582;52.018;6.306;2023-04-09T08:22:33;24.52;;;18.75;;
18899;SDS011;9582;52.018;6.306;2023-04-09T08:25:01;26.67;;;20.10;;
18899;SDS011;9582;52.018;6.306;2023-04-09T08:27:27;26.75;;;19.75;;
18899;SDS011;9582;52.018;6.306;2023-04-09T08:29:54;27.00;;;19.33;;
18899;SDS011;9582;52.018;6.306;2023-04-09T08:32:20;24.10;;;18.75;;
18899;SDS011;9582;52.018;6.306;2023-04-09T08:34:47;26.70;;;18.67;;
18899;SDS011;9582;52.018;6.306;2023-04-09T08:37:14;25.38;;;18.38;;
18899;SDS011;9582;52.018;6.306;2023-04-09T08:39:40;24.95;;;18.85;;
18899;SDS011;9582;52.018;6.306;2023-04-09T08:42:08;25.17;;;18.90;;
18899;SDS011;9582;52.018;6.306;2023-04-09T08:44:36;24.33;;;18.38;;
18899;SDS011;9582;52.018;6.306;2023-04-09T08:47:06;23.65;;;18.10;;
18899;SDS011;9582;52.018;6.306;2023-04-09T08:49:34;23.33;;;17.13;;
18899;SDS011;9582;52.018;6.306;2023-04-09T08:52:00;22.50;;;16.70;;
18899;SDS011;9582;52.018;6.306;2023-04-09T08:54:27;24.13;;;17.45;;
18899;SDS011;9582;52.018;6.306;2023-04-09T08:56:54;20.63;;;15.52;;
18899;SDS011;9582;52.018;6.306;2023-04-09T08:59:23;21.75;;;15.73;;
18899;SDS011;9582;52.018;6.306;2023-04-09T09:02:05;22.77;;;15.85;;
18899;SDS011;9582;52.018;6.306;2023-04-09T09:04:42;19.52;;;14.93;;
18899;SDS011;9582;52.018;6.306;2023-04-09T09:07:09;20.38;;;15.52;;
18899;SDS011;9582;52.018;6.306;2023-04-09T09:09:40;19.20;;;14.63;;
18899;SDS011;9582;52.018;6.306;2023-04-09T09:12:29;19.25;;;14.30;;
18899;SDS011;9582;52.018;6.306;2023-04-09T09:14:58;18.45;;;14.57;;
18899;SDS011;9582;52.018;6.306;2023-04-09T09:17:24;17.30;;;13.82;;
18899;SDS011;9582;52.018;6.306;2023-04-09T09:19:51;19.65;;;15.00;;
18899;SDS011;9582;52.018;6.306;2023-04-09T09:22:17;17.63;;;13.15;;
18899;SDS011;9582;52.018;6.306;2023-04-09T09:24:44;19.40;;;13.88;;
18899;SDS011;9582;52.018;6.306;2023-04-09T09:27:13;16.77;;;14.18;;
18899;SDS011;9582;52.018;6.306;2023-04-09T09:29:57;17.42;;;13.20;;
18899;SDS011;9582;52.018;6.306;2023-04-09T09:32:24;20.33;;;14.60;;
18899;SDS011;9582;52.018;6.306;2023-04-09T09:35:01;16.83;;;12.38;;
18899;SDS011;9582;52.018;6.306;2023-04-09T09:37:29;18.45;;;14.65;;
18899;SDS011;9582;52.018;6.306;2023-04-09T09:39:56;17.15;;;13.27;;
18899;SDS011;9582;52.018;6.306;2023-04-09T09:42:23;14.48;;;11.23;;
18899;SDS011;9582;52.018;6.306;2023-04-09T09:44:50;15.18;;;11.93;;
18899;SDS011;9582;52.018;6.306;2023-04-09T09:47:20;16.52;;;13.65;;
18899;SDS011;9582;52.018;6.306;2023-04-09T09:49:49;15.45;;;12.68;;
18899;SDS011;9582;52.018;6.306;2023-04-09T09:52:16;16.85;;;13.27;;
18899;SDS011;9582;52.018;6.306;2023-04-09T09:54:50;18.70;;;14.65;;
18899;SDS011;9582;52.018;6.306;2023-04-09T09:57:18;16.10;;;13.38;;
18899;SDS011;9582;52.018;6.306;2023-04-09T09:59:46;16.48;;;12.38;;
18899;SDS011;9582;52.018;6.306;2023-04-09T10:02:18;12.65;;;10.50;;
18899;SDS011;9582;52.018;6.306;2023-04-09T10:04:48;14.18;;;11.93;;
18899;SDS011;9582;52.018;6.306;2023-04-09T10:07:16;12.25;;;9.88;;
18899;SDS011;9582;52.018;6.306;2023-04-09T10:09:46;14.13;;;10.15;;
18899;SDS011;9582;52.018;6.306;2023-04-09T10:12:14;11.30;;;9.30;;
18899;SDS011;9582;52.018;6.306;2023-04-09T10:14:42;9.43;;;8.07;;
18899;SDS011;9582;52.018;6.306;2023-04-09T10:17:10;12.10;;;9.85;;
18899;SDS011;9582;52.018;6.306;2023-04-09T10:19:39;13.13;;;10.30;;
18899;SDS011;9582;52.018;6.306;2023-04-09T10:22:10;14.10;;;10.95;;
18899;SDS011;9582;52.018;6.306;2023-04-09T10:24:38;11.32;;;9.60;;
18899;SDS011;9582;52.018;6.306;2023-04-09T10:27:09;12.77;;;10.10;;
18899;SDS011;9582;52.018;6.306;2023-04-09T10:29:41;11.45;;;10.13;;
18899;SDS011;9582;52.018;6.306;2023-04-09T10:32:09;12.50;;;10.43;;
18899;SDS011;9582;52.018;6.306;2023-04-09T10:34:36;12.35;;;9.48;;
18899;SDS011;9582;52.018;6.306;2023-04-09T10:37:06;12.05;;;9.30;;
18899;SDS011;9582;52.018;6.306;2023-04-09T10:39:37;10.60;;;9.20;;
18899;SDS011;9582;52.018;6.306;2023-04-09T10:42:07;11.15;;;9.10;;
18899;SDS011;9582;52.018;6.306;2023-04-09T10:44:37;12.57;;;9.70;;
18899;SDS011;9582;52.018;6.306;2023-04-09T10:47:05;11.25;;;8.38;;
18899;SDS011;9582;52.018;6.306;2023-04-09T10:49:34;10.50;;;8.38;;
18899;SDS011;9582;52.018;6.306;2023-04-09T10:52:03;12.20;;;9.25;;
18899;SDS011;9582;52.018;6.306;2023-04-09T10:54:35;12.75;;;10.27;;
18899;SDS011;9582;52.018;6.306;2023-04-09T10:57:12;11.82;;;9.65;;
18899;SDS011;9582;52.018;6.306;2023-04-09T10:59:43;11.13;;;8.93;;
18899;SDS011;9582;52.018;6.306;2023-04-09T11:05:25;10.90;;;9.30;;
18899;SDS011;9582;52.018;6.306;2023-04-09T11:07:59;14.38;;;10.35;;
18899;SDS011;9582;52.018;6.306;2023-04-09T11:10:29;12.60;;;9.95;;
18899;SDS011;9582;52.018;6.306;2023-04-09T11:12:56;11.23;;;9.68;;
18899;SDS011;9582;52.018;6.306;2023-04-09T11:15:22;12.25;;;10.38;;
18899;SDS011;9582;52.018;6.306;2023-04-09T11:17:49;12.60;;;10.40;;
18899;SDS011;9582;52.018;6.306;2023-04-09T11:20:18;13.60;;;10.52;;
18899;SDS011;9582;52.018;6.306;2023-04-09T11:22:46;11.25;;;9.65;;
18899;SDS011;9582;52.018;6.306;2023-04-09T11:25:17;12.48;;;10.20;;
18899;SDS011;9582;52.018;6.306;2023-04-09T11:27:45;12.65;;;9.85;;
18899;SDS011;9582;52.018;6.306;2023-04-09T11:30:11;10.88;;;9.43;;
18899;SDS011;9582;52.018;6.306;2023-04-09T11:32:38;11.20;;;9.10;;
18899;SDS011;9582;52.018;6.306;2023-04-09T11:35:09;11.23;;;9.18;;
18899;SDS011;9582;52.018;6.306;2023-04-09T11:37:37;12.63;;;9.23;;
18899;SDS011;9582;52.018;6.306;2023-04-09T11:40:05;12.05;;;9.95;;
18899;SDS011;9582;52.018;6.306;2023-04-09T11:42:34;11.18;;;9.90;;
18899;SDS011;9582;52.018;6.306;2023-04-09T11:45:02;12.13;;;9.25;;
18899;SDS011;9582;52.018;6.306;2023-04-09T11:47:29;10.00;;;8.68;;
18899;SDS011;9582;52.018;6.306;2023-04-09T11:49:57;11.27;;;9.23;;
18899;SDS011;9582;52.018;6.306;2023-04-09T11:52:23;12.00;;;9.13;;
18899;SDS011;9582;52.018;6.306;2023-04-09T11:54:52;9.77;;;8.35;;
18899;SDS011;9582;52.018;6.306;2023-04-09T11:57:18;11.15;;;9.55;;
18899;SDS011;9582;52.018;6.306;2023-04-09T11:59:46;10.88;;;9.60;;
18899;SDS011;9582;52.018;6.306;2023-04-09T12:02:15;11.75;;;8.85;;
18899;SDS011;9582;52.018;6.306;2023-04-09T12:04:47;12.27;;;9.70;;
18899;SDS011;9582;52.018;6.306;2023-04-09T12:07:14;12.00;;;9.32;;
18899;SDS011;9582;52.018;6.306;2023-04-09T12:09:45;12.48;;;10.25;;
18899;SDS011;9582;52.018;6.306;2023-04-09T12:12:16;11.52;;;9.02;;
18899;SDS011;9582;52.018;6.306;2023-04-09T12:14:44;9.88;;;8.75;;
18899;SDS011;9582;52.018;6.306;2023-04-09T12:17:12;11.85;;;9.98;;
18899;SDS011;9582;52.018;6.306;2023-04-09T12:19:39;11.90;;;9.73;;
18899;SDS011;9582;52.018;6.306;2023-04-09T12:22:05;11.15;;;9.63;;
18899;SDS011;9582;52.018;6.306;2023-04-09T12:24:32;12.93;;;10.35;;
18899;SDS011;9582;52.018;6.306;2023-04-09T12:26:59;11.30;;;9.35;;
18899;SDS011;9582;52.018;6.306;2023-04-09T12:29:26;11.90;;;10.60;;
18899;SDS011;9582;52.018;6.306;2023-04-09T12:31:53;10.73;;;9.50;;
18899;SDS011;9582;52.018;6.306;2023-04-09T12:34:21;11.80;;;9.93;;
18899;SDS011;9582;52.018;6.306;2023-04-09T12:36:48;11.80;;;10.05;;
18899;SDS011;9582;52.018;6.306;2023-04-09T12:39:15;12.60;;;10.07;;
18899;SDS011;9582;52.018;6.306;2023-04-09T12:41:41;11.57;;;8.77;;
18899;SDS011;9582;52.018;6.306;2023-04-09T12:44:08;11.73;;;9.43;;
18899;SDS011;9582;52.018;6.306;2023-04-09T12:46:35;11.35;;;9.25;;
18899;SDS011;9582;52.018;6.306;2023-04-09T12:49:02;12.60;;;10.00;;
18899;SDS011;9582;52.018;6.306;2023-04-09T12:51:29;13.00;;;9.82;;
18899;SDS011;9582;52.018;6.306;2023-04-09T12:53:56;12.32;;;10.52;;
18899;SDS011;9582;52.018;6.306;2023-04-09T12:56:23;11.45;;;10.25;;
18899;SDS011;9582;52.018;6.306;2023-04-09T12:58:49;12.93;;;11.23;;
18899;SDS011;9582;52.018;6.306;2023-04-09T13:01:16;10.98;;;9.43;;
18899;SDS011;9582;52.018;6.306;2023-04-09T13:03:42;12.00;;;10.35;;
18899;SDS011;9582;52.018;6.306;2023-04-09T13:06:09;11.48;;;10.27;;
18899;SDS011;9582;52.018;6.306;2023-04-09T13:08:37;11.68;;;9.23;;
18899;SDS011;9582;52.018;6.306;2023-04-09T13:11:04;10.88;;;9.00;;
18899;SDS011;9582;52.018;6.306;2023-04-09T13:13:30;10.48;;;9.35;;
18899;SDS011;9582;52.018;6.306;2023-04-09T13:15:57;11.57;;;8.40;;
18899;SDS011;9582;52.018;6.306;2023-04-09T13:18:24;10.38;;;8.80;;
18899;SDS011;9582;52.018;6.306;2023-04-09T13:20:50;9.88;;;8.88;;
18899;SDS011;9582;52.018;6.306;2023-04-09T13:23:17;8.50;;;6.88;;
18899;SDS011;9582;52.018;6.306;2023-04-09T13:25:44;10.40;;;8.60;;
18899;SDS011;9582;52.018;6.306;2023-04-09T13:28:11;10.75;;;9.57;;
18899;SDS011;9582;52.018;6.306;2023-04-09T13:30:37;10.95;;;8.50;;
18899;SDS011;9582;52.018;6.306;2023-04-09T13:33:04;10.38;;;8.07;;
18899;SDS011;9582;52.018;6.306;2023-04-09T13:35:30;10.75;;;9.30;;
18899;SDS011;9582;52.018;6.306;2023-04-09T13:37:57;10.40;;;8.23;;
18899;SDS011;9582;52.018;6.306;2023-04-09T13:40:23;9.70;;;8.70;;
18899;SDS011;9582;52.018;6.306;2023-04-09T13:42:51;9.23;;;8.23;;
18899;SDS011;9582;52.018;6.306;2023-04-09T13:45:18;9.02;;;8.13;;
18899;SDS011;9582;52.018;6.306;2023-04-09T13:47:47;9.02;;;7.90;;
18899;SDS011;9582;52.018;6.306;2023-04-09T13:50:14;10.23;;;8.82;;
18899;SDS011;9582;52.018;6.306;2023-04-09T13:52:40;11.40;;;9.60;;
18899;SDS011;9582;52.018;6.306;2023-04-09T13:55:07;11.48;;;9.48;;
18899;SDS011;9582;52.018;6.306;2023-04-09T13:57:35;11.75;;;9.32;;
18899;SDS011;9582;52.018;6.306;2023-04-09T14:00:03;11.70;;;9.35;;
18899;SDS011;9582;52.018;6.306;2023-04-09T14:02:31;9.48;;;8.45;;
18899;SDS011;9582;52.018;6.306;2023-04-09T14:04:58;10.35;;;8.43;;
18899;SDS011;9582;52.018;6.306;2023-04-09T14:07:26;10.07;;;8.48;;
18899;SDS011;9582;52.018;6.306;2023-04-09T14:09:52;10.45;;;8.68;;
18899;SDS011;9582;52.018;6.306;2023-04-09T14:12:19;9.75;;;8.20;;
18899;SDS011;9582;52.018;6.306;2023-04-09T14:14:45;9.98;;;8.80;;
18899;SDS011;9582;52.018;6.306;2023-04-09T14:17:14;8.93;;;7.63;;
18899;SDS011;9582;52.018;6.306;2023-04-09T14:19:40;9.13;;;8.00;;
18899;SDS011;9582;52.018;6.306;2023-04-09T14:22:07;10.13;;;8.50;;
18899;SDS011;9582;52.018;6.306;2023-04-09T14:24:35;8.30;;;6.97;;
18899;SDS011;9582;52.018;6.306;2023-04-09T14:27:04;8.95;;;7.53;;
18899;SDS011;9582;52.018;6.306;2023-04-09T14:29:30;8.15;;;7.10;;
18899;SDS011;9582;52.018;6.306;2023-04-09T14:31:57;7.60;;;6.75;;
18899;SDS011;9582;52.018;6.306;2023-04-09T14:34:27;8.43;;;7.55;;
18899;SDS011;9582;52.018;6.306;2023-04-09T14:36:54;9.27;;;7.85;;
18899;SDS011;9582;52.018;6.306;2023-04-09T14:39:21;8.65;;;7.75;;
18899;SDS011;9582;52.018;6.306;2023-04-09T14:41:47;9.00;;;7.93;;
18899;SDS011;9582;52.018;6.306;2023-04-09T14:44:14;9.38;;;7.72;;
18899;SDS011;9582;52.018;6.306;2023-04-09T14:46:41;9.82;;;7.43;;
18899;SDS011;9582;52.018;6.306;2023-04-09T14:49:08;9.15;;;8.07;;